Time;durP1;ratioP1;P1;durP2;ratioP2;P2;SDS_P1;SDS_P2;PMS_P1;PMS_P2;Temp;Humidity;BMP_temperature;BMP_pressure;BME280_temperature;BME280_humidity;BME280_pressure;Samples;Min_cycle;Max_cycle;Signal;HPM_P1;HPM_P2
2023/07/04 00:02:51;;;;;;;3.67;0.93;;;;;;;19.62;59.74;99963.97;10222357;28;20504;-58
2023/07/04 00:07:53;;;;;;;3.75;0.88;;;;;;;19.55;59.98;99974.19;10225002;28;20055;-58
2023/07/04 00:12:54;;;;;;;2.58;0.80;;;;;;;19.50;59.99;99980.41;10223052;28;20399;-59
2023/07/04 00:17:56;;;;;;;3.53;0.70;;;;;;;19.30;60.63;99974.56;10222243;28;20179;-58
2023/07/04 00:22:59;;;;;;;2.83;1.00;;;;;;;19.25;60.74;99972.53;10221899;29;20083;-58
2023/07/04 00:28:05;;;;;;;4.13;1.00;;;;;;;19.32;60.74;99966.97;10226191;28;20568;-58
2023/07/04 00:33:06;;;;;;;5.13;1.17;;;;;;;19.22;60.46;99975.78;10228548;28;20143;-58
2023/07/04 00:38:08;;;;;;;2.97;0.95;;;;;;;19.17;60.99;99967.47;10221651;29;20086;-58
2023/07/04 00:43:12;;;;;;;4.70;1.40;;;;;;;19.09;61.35;99979.59;10220380;29;20047;-58
2023/07/04 00:48:15;;;;;;;2.53;0.90;;;;;;;18.98;61.76;99978.56;10223178;29;20078;-58
2023/07/04 00:53:16;;;;;;;2.55;1.10;;;;;;;18.88;62.05;99981.09;10221114;29;20055;-58
2023/07/04 00:58:18;;;;;;;4.72;1.40;;;;;;;18.74;62.60;99994.09;10219896;28;20049;-58
2023/07/04 01:03:20;;;;;;;2.85;1.20;;;;;;;18.66;62.87;99991.75;10221353;28;20054;-58
2023/07/04 01:08:45;;;;;;;2.83;1.15;;;;;;;18.76;62.73;99991.97;10222678;28;20066;-58
2023/07/04 01:13:47;;;;;;;4.30;1.83;;;;;;;18.77;62.69;99996.31;10222104;29;21714;-58
2023/07/04 01:18:53;;;;;;;4.30;1.60;;;;;;;18.76;62.61;99991.13;10221622;29;20054;-58
2023/07/04 01:24:14;;;;;;;3.60;1.00;;;;;;;18.75;62.78;99992.19;10219467;28;20079;-57
2023/07/04 01:29:17;;;;;;;3.70;1.20;;;;;;;18.71;62.86;99997.28;10216489;28;20090;-58
2023/07/04 01:34:20;;;;;;;3.05;1.00;;;;;;;18.65;63.26;100000.16;10218433;28;20077;-58
2023/07/04 01:39:22;;;;;;;3.00;1.48;;;;;;;18.65;63.29;100008.31;10221255;28;20055;-58
2023/07/04 01:44:26;;;;;;;5.10;1.30;;;;;;;18.62;63.42;100007.72;10224901;28;20055;-58
2023/07/04 01:49:28;;;;;;;4.85;1.00;;;;;;;18.58;63.68;100011.13;10215752;29;20710;-58
2023/07/04 01:54:30;;;;;;;4.60;1.52;;;;;;;18.56;63.91;100016.00;10221340;29;20054;-58
2023/07/04 01:59:31;;;;;;;6.28;1.30;;;;;;;18.57;63.93;100020.38;10217844;29;20378;-58
2023/07/04 02:04:33;;;;;;;3.95;1.42;;;;;;;18.50;64.21;100016.94;10220852;28;20106;-57
2023/07/04 02:09:35;;;;;;;3.63;1.75;;;;;;;18.45;64.21;100019.56;10219581;29;20134;-58
2023/07/04 02:14:36;;;;;;;3.58;1.50;;;;;;;18.34;64.51;100022.00;10218200;28;20054;-58
2023/07/04 02:19:38;;;;;;;4.00;1.30;;;;;;;18.34;64.63;100021.19;10222005;28;20055;-58
2023/07/04 02:24:39;;;;;;;2.42;1.23;;;;;;;18.25;64.78;100028.88;10215598;28;20100;-58
2023/07/04 02:29:40;;;;;;;3.13;1.25;;;;;;;18.28;64.74;100031.13;10221540;29;20059;-58
2023/07/04 02:34:42;;;;;;;3.03;1.40;;;;;;;18.21;64.88;100033.97;10219565;29;20048;-58
2023/07/04 02:39:43;;;;;;;3.92;1.48;;;;;;;18.22;64.63;100040.22;10220618;29;20058;-58
2023/07/04 02:44:45;;;;;;;5.03;2.15;;;;;;;18.18;64.71;100031.69;10213696;29;20065;-58
2023/07/04 02:49:46;;;;;;;4.32;1.67;;;;;;;18.15;64.66;100032.19;10218478;28;20052;-59
2023/07/04 02:54:48;;;;;;;3.15;1.50;;;;;;;18.10;64.90;100032.03;10215170;29;20064;-59
2023/07/04 02:59:49;;;;;;;4.45;1.38;;;;;;;18.08;65.04;100030.63;10217100;29;20054;-59
2023/07/04 03:04:51;;;;;;;2.88;1.55;;;;;;;18.03;65.14;100034.06;10229078;28;20062;-58
2023/07/04 03:09:53;;;;;;;7.72;1.92;;;;;;;17.96;65.29;100036.03;10224637;29;20059;-58
2023/07/04 03:14:55;;;;;;;4.57;1.30;;;;;;;17.84;65.55;100039.53;10229223;28;20055;-58
2023/07/04 03:19:56;;;;;;;7.65;1.55;;;;;;;17.67;66.50;100045.84;10225212;29;20044;-62
2023/07/04 03:24:58;;;;;;;5.55;1.70;;;;;;;17.68;66.24;100037.44;10221146;28;20059;-62
2023/07/04 03:29:59;;;;;;;10.48;1.70;;;;;;;17.68;66.51;100039.34;10224034;29;20379;-61
2023/07/04 03:35:02;;;;;;;3.85;1.27;;;;;;;17.74;66.14;100036.53;10224349;28;20070;-61
2023/07/04 03:40:07;;;;;;;6.30;1.73;;;;;;;17.67;66.23;100040.41;10223347;29;20059;-61
2023/07/04 03:45:10;;;;;;;5.70;1.33;;;;;;;17.66;66.22;100050.44;10226396;29;20062;-61
2023/07/04 03:50:13;;;;;;;4.53;1.70;;;;;;;17.69;65.95;100046.44;10226106;28;20078;-61
2023/07/04 03:55:14;;;;;;;3.92;1.98;;;;;;;17.63;66.29;100062.63;10225416;29;20499;-61
2023/07/04 04:00:16;;;;;;;4.35;2.03;;;;;;;17.51;66.54;100059.00;10226898;29;20051;-60
2023/07/04 04:05:19;;;;;;;10.13;1.92;;;;;;;17.55;66.44;100059.38;10226603;28;20051;-61
2023/07/04 04:10:21;;;;;;;7.18;3.10;;;;;;;17.62;66.27;100060.13;10220453;29;20063;-61
2023/07/04 04:15:22;;;;;;;4.75;1.95;;;;;;;17.61;66.43;100067.47;10221243;28;20058;-61
2023/07/04 04:20:25;;;;;;;8.63;2.33;;;;;;;17.69;66.33;100077.16;10219690;28;20078;-62
2023/07/04 04:25:26;;;;;;;4.25;1.92;;;;;;;17.63;66.32;100086.22;10228612;28;20054;-62
2023/07/04 04:30:28;;;;;;;5.13;1.80;;;;;;;17.60;66.53;100090.25;10223730;29;20057;-61
2023/07/04 04:35:30;;;;;;;6.15;2.22;;;;;;;17.62;66.33;100100.91;10223354;28;20048;-61
2023/07/04 04:40:32;;;;;;;4.22;1.83;;;;;;;17.67;66.43;100092.88;10222827;29;20059;-61
2023/07/04 04:45:34;;;;;;;5.82;2.10;;;;;;;17.77;66.10;100100.47;10224124;29;20059;-61
2023/07/04 04:50:36;;;;;;;4.57;1.85;;;;;;;17.74;65.96;100109.09;10221489;29;20051;-61
2023/07/04 04:55:38;;;;;;;9.35;2.17;;;;;;;17.63;66.16;100116.13;10222055;28;20056;-61
2023/07/04 05:00:39;;;;;;;5.43;2.35;;;;;;;17.77;65.52;100119.50;10218621;29;20074;-62
2023/07/04 05:05:40;;;;;;;5.18;2.25;;;;;;;17.78;65.45;100115.75;10223282;28;20058;-62
2023/07/04 05:10:42;;;;;;;4.53;1.65;;;;;;;17.87;64.61;100117.13;10221035;28;20051;-62
2023/07/04 05:15:43;;;;;;;9.50;2.25;;;;;;;17.97;64.30;100114.69;10221089;28;20058;-61
2023/07/04 05:20:44;;;;;;;6.47;1.88;;;;;;;18.21;63.72;100110.16;10211868;28;20039;-62
2023/07/04 05:25:46;;;;;;;9.98;2.83;;;;;;;18.35;63.29;100112.66;10218740;29;20173;-62
2023/07/04 05:30:47;;;;;;;6.38;2.78;;;;;;;18.39;63.11;100113.88;10222564;28;20522;-61
2023/07/04 05:35:49;;;;;;;5.72;2.05;;;;;;;18.50;62.96;100110.31;10221549;29;20130;-62
2023/07/04 05:40:50;;;;;;;6.18;1.98;;;;;;;18.62;62.42;100113.91;10220734;29;20075;-62
2023/07/04 05:45:53;;;;;;;6.03;1.98;;;;;;;18.78;61.79;100109.66;10218900;28;20044;-61
2023/07/04 05:50:58;;;;;;;6.72;2.05;;;;;;;18.93;61.35;100111.09;10219779;29;20055;-62
2023/07/04 05:56:14;;;;;;;7.60;1.98;;;;;;;19.02;60.54;100121.41;10217594;29;20051;-62
2023/07/04 06:01:25;;;;;;;4.70;1.67;;;;;;;19.10;59.70;100117.50;10212308;29;20055;-62
2023/07/04 06:06:32;;;;;;;7.40;1.30;;;;;;;19.16;58.69;100130.16;10217035;28;20125;-63
2023/07/04 06:11:38;;;;;;;8.40;1.40;;;;;;;19.30;57.75;100136.19;10219018;28;20759;-63
2023/07/04 06:16:39;;;;;;;7.72;1.30;;;;;;;19.44;56.60;100135.94;10216160;28;20055;-63
2023/07/04 06:21:41;;;;;;;8.13;1.63;;;;;;;19.59;55.38;100137.09;10217030;28;20427;-62
2023/07/04 06:26:46;;;;;;;14.30;1.67;;;;;;;19.77;54.25;100138.03;10219336;28;20059;-62
2023/07/04 06:31:49;;;;;;;6.55;1.50;;;;;;;19.83;53.03;100139.78;10216999;29;20114;-62
2023/07/04 06:36:50;;;;;;;4.88;1.00;;;;;;;19.94;52.53;100148.97;10221957;28;20067;-62
2023/07/04 06:41:52;;;;;;;4.15;0.88;;;;;;;20.04;51.10;100151.09;10223998;28;20522;-63
2023/07/04 06:46:53;;;;;;;7.20;0.80;;;;;;;20.12;50.80;100156.16;10219833;28;20519;-61
2023/07/04 06:51:55;;;;;;;5.35;0.90;;;;;;;20.33;50.53;100160.91;10226099;29;20059;-63
2023/07/04 06:57:03;;;;;;;4.72;1.05;;;;;;;20.28;50.19;100155.38;10229129;29;20106;-62
2023/07/04 07:02:05;;;;;;;5.68;1.23;;;;;;;20.43;49.62;100151.25;10224229;28;20514;-63
2023/07/04 07:07:09;;;;;;;7.03;1.05;;;;;;;20.69;48.82;100155.28;10227969;28;20055;-61
2023/07/04 07:12:11;;;;;;;2.90;0.93;;;;;;;20.82;48.90;100152.22;10232157;28;20059;-61
2023/07/04 07:17:13;;;;;;;4.70;1.00;;;;;;;20.84;48.68;100166.47;10236823;29;20043;-59
2023/07/04 07:22:14;;;;;;;7.25;1.02;;;;;;;20.86;48.47;100169.78;10230329;29;20067;-62
2023/07/04 07:27:16;;;;;;;6.28;1.10;;;;;;;20.87;47.88;100176.06;10232520;29;20066;-60
2023/07/04 07:32:18;;;;;;;5.70;1.27;;;;;;;20.97;47.60;100174.34;10228311;28;20113;-59
2023/07/04 07:37:19;;;;;;;6.07;1.30;;;;;;;21.09;47.25;100174.25;10234813;28;20115;-60
2023/07/04 07:42:21;;;;;;;3.92;1.50;;;;;;;21.14;46.43;100176.22;10229703;29;20078;-62
2023/07/04 07:47:22;;;;;;;4.63;1.35;;;;;;;21.33;46.43;100176.78;10229756;29;20410;-59
2023/07/04 07:52:24;;;;;;;7.63;1.48;;;;;;;21.40;45.73;100177.41;10229174;29;20059;-59
2023/07/04 07:57:26;;;;;;;3.90;1.63;;;;;;;21.65;45.04;100168.75;10226268;28;20384;-65
2023/07/04 08:02:27;;;;;;;9.80;1.25;;;;;;;21.88;44.77;100164.94;10226300;28;20052;-65
2023/07/04 08:07:29;;;;;;;8.63;1.52;;;;;;;21.90;44.61;100162.78;10225624;28;20063;-66
2023/07/04 08:12:33;;;;;;;7.57;1.23;;;;;;;22.04;43.66;100173.31;10223824;28;20054;-65
2023/07/04 08:17:34;;;;;;;4.65;1.02;;;;;;;22.15;43.35;100172.34;10223328;28;20054;-61
2023/07/04 08:22:36;;;;;;;4.53;1.30;;;;;;;21.90;42.98;100179.22;10228713;28;20529;-60
2023/07/04 08:27:37;;;;;;;3.05;1.10;;;;;;;22.04;42.87;100176.06;10225655;28;20047;-63
2023/07/04 08:32:39;;;;;;;5.00;1.00;;;;;;;22.31;42.49;100162.41;10222044;28;20393;-66
2023/07/04 08:37:40;;;;;;;4.97;1.20;;;;;;;22.35;42.03;100161.66;10215608;29;20052;-70
2023/07/04 08:42:43;;;;;;;2.90;1.02;;;;;;;22.58;41.93;100160.50;10225531;28;20055;-65
2023/07/04 08:47:44;;;;;;;2.97;1.60;;;;;;;22.60;41.01;100167.63;10216705;28;20047;-62
2023/07/04 08:52:53;;;;;;;4.85;1.00;;;;;;;22.54;41.08;100164.03;10217740;28;20174;-61
2023/07/04 08:58:00;;;;;;;7.28;1.17;;;;;;;22.55;40.77;100155.53;10218536;28;20051;-62
2023/07/04 09:03:38;;;;;;;7.35;1.10;;;;;;;22.77;40.65;100162.84;10219115;29;20051;-62
2023/07/04 09:08:40;;;;;;;6.13;0.88;;;;;;;22.88;40.22;100163.75;10221411;28;20139;-61
2023/07/04 09:13:49;;;;;;;8.00;1.48;;;;;;;23.17;39.70;100162.34;10214058;28;20039;-61
2023/07/04 09:19:01;;;;;;;3.10;0.80;;;;;;;23.30;39.22;100154.72;10216831;29;20557;-61
2023/07/04 09:24:03;;;;;;;5.82;1.35;;;;;;;23.46;39.00;100153.75;10218268;29;20159;-60
2023/07/04 09:29:07;;;;;;;4.55;1.30;;;;;;;23.57;38.31;100160.09;10217408;28;20062;-61
2023/07/04 09:34:34;;;;;;;6.40;1.52;;;;;;;23.47;38.47;100165.53;10210624;29;20051;-60
2023/07/04 09:39:58;;;;;;;6.55;1.50;;;;;;;23.38;37.97;100154.25;10211826;28;20078;-60
2023/07/04 09:45:06;;;;;;;7.30;2.33;;;;;;;23.83;37.24;100161.06;10213790;29;20051;-60
2023/07/04 09:50:14;;;;;;;3.42;1.50;;;;;;;23.76;37.19;100149.50;10217194;29;20060;-61
2023/07/04 09:55:25;;;;;;;5.22;1.50;;;;;;;23.70;36.81;100142.34;10216562;29;20415;-61
2023/07/04 10:00:26;;;;;;;5.65;1.98;;;;;;;23.94;36.22;100160.00;10214840;29;20047;-60
2023/07/04 10:05:32;;;;;;;7.93;1.45;;;;;;;24.11;35.76;100151.56;10225475;28;20062;-59
2023/07/04 10:10:52;;;;;;;4.65;1.08;;;;;;;24.42;35.76;100137.84;10217261;28;20050;-60
2023/07/04 10:15:54;;;;;;;5.22;1.52;;;;;;;24.35;35.34;100143.63;10220512;28;20055;-60
2023/07/04 10:20:57;;;;;;;3.15;1.55;;;;;;;24.46;35.12;100127.13;10219607;29;20059;-60
2023/07/04 10:26:00;;;;;;;5.60;1.92;;;;;;;24.60;33.92;100133.75;10223929;28;20485;-59
2023/07/04 10:31:15;;;;;;;5.53;1.65;;;;;;;24.71;34.11;100123.59;10218578;28;20047;-60
2023/07/04 10:36:26;;;;;;;3.42;1.60;;;;;;;24.91;33.38;100131.00;10219983;29;20055;-59
2023/07/04 10:41:40;;;;;;;5.70;2.10;;;;;;;25.12;33.37;100135.38;10218198;28;20055;-59
2023/07/04 10:46:51;;;;;;;7.43;1.77;;;;;;;25.25;32.84;100125.75;10218114;28;20070;-60
2023/07/04 10:52:00;;;;;;;4.38;1.92;;;;;;;25.51;32.63;100125.66;10225660;28;20047;-59
2023/07/04 10:57:15;;;;;;;6.75;1.90;;;;;;;25.60;32.42;100123.97;10230626;28;20040;-60
2023/07/04 11:02:39;;;;;;;3.73;1.90;;;;;;;26.10;31.73;100124.03;10232232;28;20152;-60
2023/07/04 11:07:43;;;;;;;7.88;2.80;;;;;;;26.23;31.26;100120.63;10231240;28;20078;-59
2023/07/04 11:12:45;;;;;;;5.95;1.90;;;;;;;26.17;30.99;100120.97;10231928;29;20498;-59
2023/07/04 11:17:48;;;;;;;4.65;2.08;;;;;;;26.22;30.42;100113.47;10231723;28;20051;-61
2023/07/04 11:22:50;;;;;;;4.88;2.42;;;;;;;26.45;29.62;100114.66;10213146;28;20058;-61
2023/07/04 11:28:16;;;;;;;7.68;3.30;;;;;;;26.65;30.03;100101.88;10235671;28;20511;-60
2023/07/04 11:33:36;;;;;;;5.72;3.00;;;;;;;26.90;29.00;100090.59;10234782;29;20087;-60
2023/07/04 11:38:42;;;;;;;5.20;2.67;;;;;;;27.16;28.52;100092.25;10238130;28;20407;-60
2023/07/04 11:43:46;;;;;;;6.78;3.08;;;;;;;27.49;27.94;100091.34;10232607;29;20052;-59
2023/07/04 11:48:51;;;;;;;5.68;2.85;;;;;;;27.33;27.44;100089.88;10238459;29;20422;-60
2023/07/04 11:53:56;;;;;;;7.97;3.40;;;;;;;27.44;27.69;100076.75;10234879;29;20042;-60
2023/07/04 11:59:18;;;;;;;6.88;3.28;;;;;;;27.74;27.09;100074.72;10221320;28;20051;-60
2023/07/04 12:04:35;;;;;;;5.70;3.53;;;;;;;27.83;26.79;100083.97;10207286;28;20093;-60
2023/07/04 12:09:37;;;;;;;6.25;3.45;;;;;;;28.08;26.28;100072.59;10230727;29;20435;-58
2023/07/04 12:14:43;;;;;;;5.03;3.58;;;;;;;28.36;26.10;100058.03;10229308;28;20055;-60
2023/07/04 12:19:45;;;;;;;5.43;3.75;;;;;;;28.91;25.59;100055.44;10228780;29;20560;-60
2023/07/04 12:24:46;;;;;;;7.03;3.70;;;;;;;29.17;24.87;100050.25;10224052;29;20044;-61
2023/07/04 12:29:48;;;;;;;6.57;3.92;;;;;;;29.06;24.28;100055.13;10227502;28;20054;-60
2023/07/04 12:35:04;;;;;;;;;;;;;;;28.42;25.19;100049.38;10222497;28;20426;-60
2023/07/04 12:40:16;;;;;;;6.50;3.60;;;;;;;28.72;24.97;100055.50;10223808;28;19923;-60
2023/07/04 12:45:22;;;;;;;5.97;4.32;;;;;;;29.12;24.43;100046.75;10231036;28;20513;-59
2023/07/04 12:50:24;;;;;;;6.55;3.67;;;;;;;29.10;23.96;100037.91;10226908;29;20062;-59
2023/07/04 12:55:32;;;;;;;5.85;3.38;;;;;;;28.96;23.62;100035.13;10223095;28;21920;-59
2023/07/04 13:00:57;;;;;;;7.15;3.53;;;;;;;29.27;23.57;100032.59;10224047;28;20071;-60
2023/07/04 13:05:58;;;;;;;7.00;4.13;;;;;;;29.49;23.23;100028.25;10216040;29;20063;-59
2023/07/04 13:11:00;;;;;;;7.60;4.32;;;;;;;29.33;22.82;100031.34;10215603;28;20062;-59
2023/07/04 13:16:20;;;;;;;5.80;4.05;;;;;;;29.31;22.41;100011.47;10214361;29;20585;-60
2023/07/04 13:21:30;;;;;;;5.43;4.20;;;;;;;29.48;22.25;100015.53;10215259;29;20074;-60
2023/07/04 13:26:34;;;;;;;6.00;3.88;;;;;;;29.83;22.27;100011.97;10218588;29;20068;-61
2023/07/04 13:31:35;;;;;;;7.30;3.53;;;;;;;29.93;22.84;100013.69;10214668;29;20047;-68
2023/07/04 13:36:46;;;;;;;9.77;4.75;;;;;;;29.96;21.79;100001.97;10217520;29;20051;-68
2023/07/04 13:41:51;;;;;;;6.03;3.95;;;;;;;30.25;21.07;99997.91;10224486;28;20158;-68
2023/07/04 13:46:53;;;;;;;6.10;3.90;;;;;;;30.89;21.51;99997.66;10222907;29;20054;-65
2023/07/04 13:51:55;;;;;;;7.78;4.38;;;;;;;31.00;21.58;99987.06;10219219;29;20167;-68
2023/07/04 13:56:56;;;;;;;7.07;4.15;;;;;;;31.16;20.61;99979.94;10218003;29;20514;-67
2023/07/04 14:01:58;;;;;;;6.93;4.28;;;;;;;31.83;20.38;99983.41;10225221;29;20912;-68
2023/07/04 14:07:03;;;;;;;7.20;4.53;;;;;;;31.74;19.94;99977.06;10222008;28;20062;-69
2023/07/04 14:12:05;;;;;;;7.05;4.32;;;;;;;31.55;19.96;99971.81;10223102;28;20051;-68
2023/07/04 14:17:06;;;;;;;5.93;4.13;;;;;;;31.37;20.46;99970.97;10218444;28;20082;-68
2023/07/04 14:22:12;;;;;;;5.68;4.00;;;;;;;30.84;20.88;99981.09;10219658;28;20063;-65
2023/07/04 14:27:15;;;;;;;9.70;4.43;;;;;;;30.94;21.06;99963.34;10222565;28;20055;-68
2023/07/04 14:32:37;;;;;;;6.22;4.07;;;;;;;31.24;20.33;99944.94;10213849;28;20483;-66
2023/07/04 14:37:38;;;;;;;11.55;3.90;;;;;;;31.48;20.02;99963.97;10219379;29;20142;-67
2023/07/04 14:42:40;;;;;;;11.02;4.20;;;;;;;32.14;19.89;99960.19;10225490;29;20062;-65
2023/07/04 14:47:49;;;;;;;3.72;2.55;;;;;;;32.07;19.70;99944.03;10223764;28;20159;-68
2023/07/04 14:52:51;;;;;;;8.38;3.88;;;;;;;31.96;19.91;99928.78;10220159;28;20047;-69
2023/07/04 14:57:53;;;;;;;5.63;3.92;;;;;;;32.22;19.64;99924.00;10211147;28;20051;-67
2023/07/04 15:02:55;;;;;;;7.93;4.05;;;;;;;31.45;20.05;99941.56;10223362;28;20051;-67
2023/07/04 15:07:56;;;;;;;7.13;3.75;;;;;;;30.81;20.30;99934.56;10223583;28;20056;-65
2023/07/04 15:12:58;;;;;;;11.63;3.45;;;;;;;30.40;20.85;99924.63;10229262;28;20507;-66
2023/07/04 15:17:59;;;;;;;6.38;3.83;;;;;;;30.27;20.58;99923.53;10226014;29;20354;-66
2023/07/04 15:23:01;;;;;;;7.00;3.90;;;;;;;30.71;20.07;99921.81;10225140;28;20126;-67
2023/07/04 15:28:03;;;;;;;8.73;3.95;;;;;;;31.08;20.37;99904.91;10227986;29;20118;-67
2023/07/04 15:33:04;;;;;;;7.05;3.03;;;;;;;31.20;20.06;99908.69;10225140;28;20069;-64
2023/07/04 15:38:06;;;;;;;6.30;3.08;;;;;;;30.81;20.43;99902.06;10226281;28;20062;-64
2023/07/04 15:43:07;;;;;;;6.30;3.35;;;;;;;31.11;20.33;99905.09;10227925;28;20106;-66
2023/07/04 15:48:10;;;;;;;6.72;3.42;;;;;;;30.95;20.66;99893.63;10222788;28;20059;-64
2023/07/04 15:53:11;;;;;;;6.57;2.70;;;;;;;30.89;20.76;99894.94;10226201;28;20444;-65
2023/07/04 15:58:13;;;;;;;9.43;3.60;;;;;;;30.99;20.90;99889.06;10206513;29;20051;-65
2023/07/04 16:03:14;;;;;;;9.05;3.50;;;;;;;31.17;21.06;99886.31;10219377;28;20047;-65
2023/07/04 16:08:17;;;;;;;6.68;2.72;;;;;;;31.39;20.83;99877.81;10224980;28;20055;-63
2023/07/04 16:13:18;;;;;;;6.15;3.30;;;;;;;30.96;20.56;99877.78;10204326;28;20400;-65
2023/07/04 16:18:21;;;;;;;4.38;2.72;;;;;;;30.53;21.32;99871.00;10225497;28;20071;-66
2023/07/04 16:23:22;;;;;;;6.00;2.80;;;;;;;30.20;21.41;99859.41;10219941;28;20057;-66
2023/07/04 16:28:24;;;;;;;5.70;2.50;;;;;;;30.17;21.35;99860.84;10219769;29;20052;-66
2023/07/04 16:33:25;;;;;;;5.53;2.88;;;;;;;30.25;21.81;99862.03;10219210;28;20074;-65
2023/07/04 16:38:27;;;;;;;5.82;2.95;;;;;;;30.93;21.22;99864.56;10227540;29;20055;-65
2023/07/04 16:43:29;;;;;;;3.88;2.58;;;;;;;30.50;21.15;99876.34;10229072;28;20043;-65
2023/07/04 16:48:31;;;;;;;5.82;3.25;;;;;;;30.51;21.57;99875.19;10222150;28;20062;-66
2023/07/04 16:53:32;;;;;;;6.03;3.05;;;;;;;30.56;21.42;99869.53;10219644;28;20048;-66
2023/07/04 16:58:36;;;;;;;6.50;3.10;;;;;;;30.66;21.33;99865.63;10223721;29;20075;-66
2023/07/04 17:03:37;;;;;;;5.35;3.20;;;;;;;30.38;22.24;99871.41;10223489;28;20054;-65
2023/07/04 17:08:39;;;;;;;7.57;2.75;;;;;;;30.50;21.53;99863.28;10222773;28;20426;-65
2023/07/04 17:13:40;;;;;;;4.72;2.88;;;;;;;30.25;22.21;99860.09;10220021;28;20062;-65
2023/07/04 17:18:42;;;;;;;4.47;2.95;;;;;;;29.85;22.79;99862.81;10204842;28;20082;-66
2023/07/04 17:23:44;;;;;;;5.57;3.13;;;;;;;29.57;23.14;99864.09;10207630;28;20386;-65
2023/07/04 17:28:45;;;;;;;5.90;3.50;;;;;;;29.35;23.55;99862.13;10221348;28;20052;-64
2023/07/04 17:33:47;;;;;;;4.72;2.83;;;;;;;29.14;23.32;99868.13;10223463;28;20051;-64
2023/07/04 17:38:48;;;;;;;5.72;3.42;;;;;;;29.18;23.16;99860.03;10225763;29;20055;-60
2023/07/04 17:43:50;;;;;;;6.15;3.13;;;;;;;29.20;24.15;99864.13;10217855;28;20510;-61
2023/07/04 17:48:52;;;;;;;9.27;3.55;;;;;;;29.44;23.18;99850.00;10218949;29;20059;-61
2023/07/04 17:53:53;;;;;;;4.78;2.60;;;;;;;29.45;23.53;99859.91;10221688;29;20059;-61
2023/07/04 17:58:54;;;;;;;6.28;2.75;;;;;;;29.56;23.37;99852.19;10224072;29;20044;-61
2023/07/04 18:03:56;;;;;;;9.68;2.95;;;;;;;29.58;23.98;99844.38;10218655;28;20062;-61
2023/07/04 18:08:57;;;;;;;6.72;3.00;;;;;;;29.81;23.58;99833.28;10217256;28;20055;-62
2023/07/04 18:13:59;;;;;;;6.22;3.10;;;;;;;29.49;24.37;99829.66;10222938;28;20051;-61
2023/07/04 18:19:01;;;;;;;6.63;2.85;;;;;;;29.45;23.73;99832.22;10221629;28;20095;-62
2023/07/04 18:24:03;;;;;;;7.53;3.22;;;;;;;29.13;24.50;99832.44;10224960;28;20066;-67
2023/07/04 18:29:07;;;;;;;5.75;2.40;;;;;;;28.87;24.62;99833.00;10226344;28;20059;-68
2023/07/04 18:34:09;;;;;;;4.00;2.50;;;;;;;28.78;24.90;99823.81;10227266;28;20067;-67
2023/07/04 18:39:10;;;;;;;4.95;2.22;;;;;;;28.75;24.98;99816.13;10225454;29;20055;-67
2023/07/04 18:44:12;;;;;;;7.18;2.30;;;;;;;28.66;24.92;99814.13;10224448;29;20054;-67
2023/07/04 18:49:14;;;;;;;6.55;2.97;;;;;;;28.47;25.15;99810.63;10221875;28;20060;-67
2023/07/04 18:54:16;;;;;;;5.20;2.60;;;;;;;28.41;25.52;99811.88;10225861;29;20048;-67
2023/07/04 18:59:18;;;;;;;5.55;2.53;;;;;;;28.33;25.71;99809.81;10231770;28;20150;-68
2023/07/04 19:04:19;;;;;;;6.28;2.30;;;;;;;28.27;26.68;99804.38;10231347;28;20514;-68
2023/07/04 19:09:21;;;;;;;5.93;2.60;;;;;;;28.16;26.99;99804.91;10211674;29;20060;-68
2023/07/04 19:14:22;;;;;;;6.82;3.15;;;;;;;28.01;27.38;99803.28;10232476;28;20055;-67
2023/07/04 19:19:30;;;;;;;5.25;3.05;;;;;;;27.91;27.47;99793.22;10229915;29;20142;-68
2023/07/04 19:24:33;;;;;;;5.18;2.75;;;;;;;27.80;27.71;99803.59;10229677;28;20044;-68
2023/07/04 19:29:34;;;;;;;5.30;2.67;;;;;;;27.63;28.33;99804.22;10227046;29;20066;-69
2023/07/04 19:34:36;;;;;;;4.47;3.15;;;;;;;27.49;28.66;99804.19;10227860;28;20051;-67
2023/07/04 19:39:38;;;;;;;7.93;3.08;;;;;;;27.36;28.83;99798.59;10225635;29;20058;-68
2023/07/04 19:44:39;;;;;;;5.75;2.80;;;;;;;27.22;29.07;99807.63;10218066;28;20051;-68
2023/07/04 19:49:41;;;;;;;11.23;3.35;;;;;;;27.09;30.10;99805.63;10224968;29;20051;-68
2023/07/04 19:54:43;;;;;;;8.48;3.42;;;;;;;26.98;30.09;99810.47;10226799;28;20047;-63
2023/07/04 19:59:44;;;;;;;7.45;2.53;;;;;;;26.87;30.52;99809.78;10207451;29;20048;-62
2023/07/04 20:04:46;;;;;;;7.97;2.97;;;;;;;26.66;31.79;99802.97;10224753;28;20060;-62
2023/07/04 20:09:47;;;;;;;5.28;2.00;;;;;;;26.50;32.01;99799.53;10219599;29;20506;-63
2023/07/04 20:14:49;;;;;;;6.82;3.20;;;;;;;26.31;32.12;99797.56;10222891;28;20050;-62
2023/07/04 20:19:50;;;;;;;9.75;3.25;;;;;;;26.05;32.76;99790.72;10225249;28;22019;-61
2023/07/04 20:24:52;;;;;;;7.13;2.72;;;;;;;25.97;33.40;99785.84;10225201;28;20047;-62
2023/07/04 20:29:53;;;;;;;9.98;3.90;;;;;;;25.92;34.14;99781.22;10213973;28;20047;-62
2023/07/04 20:34:55;;;;;;;6.30;2.65;;;;;;;25.68;34.42;99786.69;10222949;29;20044;-63
2023/07/04 20:39:56;;;;;;;11.00;3.65;;;;;;;25.55;34.47;99796.41;10219075;29;20059;-60
2023/07/04 20:44:58;;;;;;;10.82;3.58;;;;;;;25.48;35.12;99784.94;10224722;29;20051;-61
2023/07/04 20:50:02;;;;;;;8.02;3.25;;;;;;;25.36;35.13;99787.25;10225023;29;20059;-61
2023/07/04 20:55:05;;;;;;;8.93;3.63;;;;;;;25.18;35.62;99791.47;10217819;28;20051;-59
2023/07/04 21:00:14;;;;;;;5.78;3.10;;;;;;;25.03;36.47;99798.75;10221789;29;20074;-63
2023/07/04 21:05:17;;;;;;;5.55;3.78;;;;;;;24.73;36.75;99806.06;10218442;28;20054;-61
2023/07/04 21:10:24;;;;;;;8.85;3.45;;;;;;;24.61;36.73;99802.03;10218903;28;20515;-60
2023/07/04 21:15:26;;;;;;;7.20;2.00;;;;;;;24.63;36.89;99791.59;10220225;28;20078;-62
2023/07/04 21:20:29;;;;;;;2.30;1.10;;;;;;;24.65;37.08;99784.69;10223240;28;20134;-61
2023/07/04 21:25:32;;;;;;;4.65;1.33;;;;;;;24.74;37.58;99776.66;10223699;28;20055;-60
2023/07/04 21:30:33;;;;;;;4.30;1.10;;;;;;;24.69;38.10;99783.00;10219938;28;20048;-61
2023/07/04 21:35:36;;;;;;;3.08;0.95;;;;;;;24.66;38.95;99780.00;10221825;28;20143;-62
2023/07/04 21:40:38;;;;;;;3.05;0.85;;;;;;;24.71;39.14;99777.25;10219204;28;20534;-62
2023/07/04 21:45:40;;;;;;;3.65;1.00;;;;;;;24.72;39.78;99768.72;10216679;29;20066;-62
2023/07/04 21:50:41;;;;;;;4.43;0.80;;;;;;;24.69;39.99;99773.94;10220944;29;20066;-61
2023/07/04 21:55:44;;;;;;;5.28;1.00;;;;;;;24.64;40.01;99765.72;10215841;29;20514;-63
2023/07/04 22:00:46;;;;;;;2.75;0.80;;;;;;;24.62;40.61;99773.44;10212722;29;20054;-62
2023/07/04 22:05:48;;;;;;;5.95;0.93;;;;;;;24.53;41.15;99770.47;10217567;28;20051;-61
2023/07/04 22:11:00;;;;;;;1.98;0.90;;;;;;;24.47;41.11;99752.34;10215306;29;20055;-62
2023/07/04 22:16:03;;;;;;;1.65;0.85;;;;;;;24.42;41.50;99750.41;10217665;28;20044;-62
2023/07/04 22:21:10;;;;;;;2.00;0.70;;;;;;;24.33;41.98;99755.69;10219172;29;20047;-61
2023/07/04 22:26:12;;;;;;;2.05;0.75;;;;;;;24.24;42.10;99748.31;10216457;29;20110;-61
2023/07/04 22:31:15;;;;;;;2.42;0.82;;;;;;;24.20;42.17;99748.06;10216597;29;20130;-61
2023/07/04 22:36:18;;;;;;;2.72;1.00;;;;;;;24.12;42.28;99746.72;10218111;29;20455;-61
2023/07/04 22:41:19;;;;;;;5.60;1.13;;;;;;;24.09;42.31;99744.53;10222526;29;20073;-61
2023/07/04 22:46:21;;;;;;;4.30;0.77;;;;;;;23.95;42.82;99749.81;10220792;28;20052;-62
2023/07/04 22:51:23;;;;;;;2.53;0.70;;;;;;;23.83;42.82;99740.22;10209292;29;20044;-62
2023/07/04 22:56:25;;;;;;;4.45;0.80;;;;;;;23.65;43.38;99736.94;10216182;29;20048;-61
2023/07/04 23:01:26;;;;;;;1.95;0.60;;;;;;;23.48;44.04;99740.00;10217356;29;20048;-61
2023/07/04 23:06:33;;;;;;;3.38;0.90;;;;;;;23.42;44.13;99737.53;10219466;28;20055;-62
2023/07/04 23:11:35;;;;;;;1.10;0.50;;;;;;;23.32;44.44;99741.09;10220638;28;20490;-61
2023/07/04 23:16:36;;;;;;;1.73;0.65;;;;;;;23.24;44.77;99737.00;10217034;28;20055;-61
2023/07/04 23:21:37;;;;;;;1.92;0.65;;;;;;;23.20;45.03;99726.88;10220117;28;20051;-61
2023/07/04 23:26:39;;;;;;;1.40;0.63;;;;;;;23.13;45.34;99724.41;10226746;28;20059;-62